Toyomasa Maru — JJ3927 — position and weather

sailwx.info

Track history (hours):
 
Tides and Currents Weather Stations Pressure Air Temp Water Temp Dewpoint Dewpoint Depression Visibility Wind Speed Wind Dir Waves Ship Positions

Toyomasa Maru

Last reported at 2014-Nov-24 11:27 UTC. Time now 2014-Nov-28 21:35 UTC.
Position N 34°35' E 134°51'.

Length 101 m; draft 4.5 m.

Type: Tanker. MMSI: 431300401.

Date/timePositionNaut miles runAvg speedWind from/ knotsBaromVisibWave heightAir tempDewpointWater temp
2014-Nov-24 11:27N 34°35' E 134°51'1213.6
2014-Nov-24 10:33N 34°36' E 135°06'4 1.5
2014-Nov-24 08:08N 34°39' E 135°08'0 0.0
2014-Nov-24 04:19N 34°39' E 135°08'3 4.2
2014-Nov-24 03:33N 34°36' E 135°07'1612.6
2014-Nov-24 02:18N 34°21' E 135°01'1013.0
2014-Nov-24 01:33N 34°11' E 134°60'8 0.2
2014-Nov-22 11:12N 34°19' E 134°58'913.2
2014-Nov-22 10:30N 34°28' E 135°01'1010.2
2014-Nov-22 09:33N 34°37' E 134°60'5 0.1
2014-Nov-20 10:05N 34°36' E 134°54'814.5
2014-Nov-20 09:33N 34°36' E 135°04'5 4.4
2014-Nov-20 08:30N 34°39' E 135°08'0 0.0
2014-Nov-20 07:24N 34°39' E 135°08'0 0.0
2014-Nov-20 06:30N 34°39' E 135°08'0 0.0
2014-Nov-20 05:12N 34°39' E 135°08'0 0.0
2014-Nov-20 04:18N 34°39' E 135°08'3 3.6
2014-Nov-20 03:33N 34°36' E 135°08'1312.3
2014-Nov-20 02:29N 34°24' E 135°02'1111.9
2014-Nov-20 01:33N 34°13' E 134°59'6 0.2
2014-Nov-18 12:33N 34°19' E 134°59'1414.4
2014-Nov-18 11:34N 34°33' E 135°06'6 5.9
2014-Nov-18 10:28N 34°39' E 135°08'0 0.0
2014-Nov-18 09:28N 34°39' E 135°08'0 0.0
2014-Nov-18 08:28N 34°39' E 135°08'0 0.0
2014-Nov-18 07:28N 34°39' E 135°08'0 0.0
2014-Nov-18 06:28N 34°39' E 135°08'0 0.0
2014-Nov-18 05:28N 34°39' E 135°08'0 0.0
2014-Nov-18 04:33N 34°39' E 135°08'6 6.2
2014-Nov-18 03:33N 34°37' E 135°01'  
Track history (hours):
 
Tides and Currents Weather Stations Pressure Air Temp Water Temp Dewpoint Dewpoint Depression Visibility Wind Speed Wind Dir Waves Ship Positions

Toyomasa Maru

Last reported at 2014-Nov-24 11:27 UTC. Time now 2014-Nov-28 21:35 UTC.
Position N 34°35' E 134°51'.

Length 101 m; draft 4.5 m.

Type: Tanker. MMSI: 431300401.

Date/timePositionNaut miles runAvg speedWind from/ knotsBaromVisibWave heightAir tempDewpointWater temp
2014-Nov-24 11:27N 34°35' E 134°51'1213.6
2014-Nov-24 10:33N 34°36' E 135°06'4 1.5
2014-Nov-24 08:08N 34°39' E 135°08'0 0.0
2014-Nov-24 04:19N 34°39' E 135°08'3 4.2
2014-Nov-24 03:33N 34°36' E 135°07'1612.6
2014-Nov-24 02:18N 34°21' E 135°01'1013.0
2014-Nov-24 01:33N 34°11' E 134°60'8 0.2
2014-Nov-22 11:12N 34°19' E 134°58'913.2
2014-Nov-22 10:30N 34°28' E 135°01'1010.2
2014-Nov-22 09:33N 34°37' E 134°60'5 0.1
2014-Nov-20 10:05N 34°36' E 134°54'814.5
2014-Nov-20 09:33N 34°36' E 135°04'5 4.4
2014-Nov-20 08:30N 34°39' E 135°08'0 0.0
2014-Nov-20 07:24N 34°39' E 135°08'0 0.0
2014-Nov-20 06:30N 34°39' E 135°08'0 0.0
2014-Nov-20 05:12N 34°39' E 135°08'0 0.0
2014-Nov-20 04:18N 34°39' E 135°08'3 3.6
2014-Nov-20 03:33N 34°36' E 135°08'1312.3
2014-Nov-20 02:29N 34°24' E 135°02'1111.9
2014-Nov-20 01:33N 34°13' E 134°59'6 0.2
2014-Nov-18 12:33N 34°19' E 134°59'1414.4
2014-Nov-18 11:34N 34°33' E 135°06'6 5.9
2014-Nov-18 10:28N 34°39' E 135°08'0 0.0
2014-Nov-18 09:28N 34°39' E 135°08'0 0.0
2014-Nov-18 08:28N 34°39' E 135°08'0 0.0
2014-Nov-18 07:28N 34°39' E 135°08'0 0.0
2014-Nov-18 06:28N 34°39' E 135°08'0 0.0
2014-Nov-18 05:28N 34°39' E 135°08'0 0.0
2014-Nov-18 04:33N 34°39' E 135°08'6 6.2
2014-Nov-18 03:33N 34°37' E 135°01'  

Dump ship's entire track history